createdAt,value
2017-03-07T00:00:14.588Z,0
2017-03-07T00:01:24.954Z,0
2017-03-07T00:02:35.731Z,0
2017-03-07T00:03:46.095Z,0
2017-03-07T00:04:56.925Z,0
2017-03-07T00:06:06.532Z,0
2017-03-07T00:07:17.351Z,0
2017-03-07T00:08:28.120Z,0
2017-03-07T00:09:38.517Z,0
2017-03-07T00:10:49.279Z,0
2017-03-07T00:12:00.081Z,0
2017-03-07T00:13:10.503Z,0
2017-03-07T00:14:21.297Z,0
2017-03-07T00:15:31.691Z,0
2017-03-07T00:16:42.102Z,0
2017-03-07T00:17:52.512Z,0
2017-03-07T00:19:02.952Z,0
2017-03-07T00:20:13.728Z,0
2017-03-07T00:21:24.491Z,0
2017-03-07T00:22:35.270Z,0
2017-03-07T00:23:45.249Z,0
2017-03-07T00:24:55.688Z,0
2017-03-07T00:26:06.465Z,0
2017-03-07T00:27:16.852Z,0
2017-03-07T00:28:27.640Z,0
2017-03-07T00:29:38.076Z,0
2017-03-07T00:30:48.458Z,0
2017-03-07T00:31:59.259Z,0
2017-03-07T00:33:09.299Z,0
2017-03-07T00:34:19.738Z,0
2017-03-07T00:35:29.739Z,0
2017-03-07T00:36:40.521Z,0
2017-03-07T00:37:50.114Z,0
2017-03-07T00:39:00.496Z,0
2017-03-07T00:40:10.514Z,0
2017-03-07T00:41:20.904Z,0
2017-03-07T00:42:31.271Z,0
2017-03-07T00:43:42.074Z,0
2017-03-07T00:44:52.888Z,0
2017-03-07T00:46:03.279Z,0
2017-03-07T00:47:13.642Z,0
2017-03-07T00:48:24.009Z,0
2017-03-07T00:49:34.762Z,0
2017-03-07T00:50:45.142Z,0
2017-03-07T00:51:55.909Z,0
2017-03-07T00:53:06.301Z,0
2017-03-07T00:54:17.077Z,0
2017-03-07T00:55:27.090Z,0
2017-03-07T00:56:37.494Z,0
2017-03-07T00:57:47.474Z,0
2017-03-07T00:58:58.234Z,0
2017-03-07T01:00:09.022Z,0
2017-03-07T01:01:19.805Z,0
2017-03-07T01:02:29.776Z,0
2017-03-07T01:03:40.545Z,0
2017-03-07T01:04:50.542Z,0
2017-03-07T01:06:00.926Z,0
2017-03-07T01:07:11.336Z,0
2017-03-07T01:08:22.118Z,0
2017-03-07T01:09:32.492Z,0
2017-03-07T01:10:43.269Z,0
2017-03-07T01:11:53.633Z,0
2017-03-07T01:13:04.025Z,0
2017-03-07T01:14:14.413Z,0
2017-03-07T01:15:24.822Z,0
2017-03-07T01:16:35.230Z,0
2017-03-07T01:17:46.007Z,0
2017-03-07T01:18:56.401Z,0
2017-03-07T01:20:06.786Z,0
2017-03-07T01:21:17.601Z,0
2017-03-07T01:22:28.416Z,0
2017-03-07T01:23:38.066Z,0
2017-03-07T01:24:48.444Z,0
2017-03-07T01:25:58.844Z,0
2017-03-07T01:27:09.241Z,0
2017-03-07T01:28:19.621Z,0
2017-03-07T01:29:30.624Z,0
2017-03-07T01:30:41.421Z,0
2017-03-07T01:31:52.195Z,0
2017-03-07T01:33:02.975Z,0
2017-03-07T01:34:13.365Z,0
2017-03-07T01:35:24.122Z,0
2017-03-07T01:36:34.899Z,0
2017-03-07T01:37:45.664Z,0
2017-03-07T01:38:56.432Z,0
2017-03-07T01:40:06.794Z,0
2017-03-07T01:41:17.568Z,0
2017-03-07T01:42:28.004Z,0
2017-03-07T01:43:38.785Z,0
2017-03-07T01:44:49.175Z,0
2017-03-07T01:45:59.553Z,0
2017-03-07T01:47:10.324Z,0
2017-03-07T01:48:21.117Z,0
2017-03-07T01:49:31.912Z,0
2017-03-07T01:50:42.699Z,0
2017-03-07T01:51:53.072Z,0
2017-03-07T01:53:03.886Z,0
2017-03-07T01:54:14.260Z,0
2017-03-07T01:55:24.222Z,0
2017-03-07T01:56:35.007Z,0
2017-03-07T01:57:45.781Z,0
2017-03-07T01:58:56.142Z,0
2017-03-07T02:00:05.733Z,0
2017-03-07T02:01:16.522Z,0
2017-03-07T02:02:27.274Z,0
2017-03-07T02:03:38.050Z,0
2017-03-07T02:04:48.036Z,0
2017-03-07T02:05:58.035Z,0
2017-03-07T02:07:08.792Z,0
2017-03-07T02:08:19.190Z,0
2017-03-07T02:09:29.597Z,0
2017-03-07T02:10:39.980Z,0
2017-03-07T02:11:50.756Z,0
2017-03-07T02:13:01.149Z,0
2017-03-07T02:14:11.526Z,0
2017-03-07T02:15:22.332Z,0
2017-03-07T02:16:33.088Z,0
2017-03-07T02:17:43.869Z,0
2017-03-07T02:18:54.650Z,0
2017-03-07T02:20:05.422Z,0
2017-03-07T02:21:16.225Z,0
2017-03-07T02:22:27.026Z,0
2017-03-07T02:23:37.430Z,0
2017-03-07T02:24:48.207Z,0
2017-03-07T02:25:58.585Z,0
2017-03-07T02:27:09.354Z,0
2017-03-07T02:28:20.135Z,0
2017-03-07T02:29:30.135Z,0
2017-03-07T02:30:41.214Z,0
2017-03-07T02:31:52.043Z,0
2017-03-07T02:33:02.402Z,0
2017-03-07T02:34:12.398Z,0
2017-03-07T02:35:22.793Z,0
2017-03-07T02:36:33.577Z,0
2017-03-07T02:37:44.329Z,0
2017-03-07T02:38:54.368Z,0
2017-03-07T02:40:05.133Z,0
2017-03-07T02:41:15.928Z,0
2017-03-07T02:42:25.951Z,0
2017-03-07T02:43:35.963Z,0
2017-03-07T02:44:46.752Z,0
2017-03-07T02:45:56.727Z,0
2017-03-07T02:47:07.494Z,0
2017-03-07T02:48:18.277Z,0
2017-03-07T02:49:28.691Z,0
2017-03-07T02:50:39.484Z,0
2017-03-07T02:51:49.891Z,0
2017-03-07T02:53:00.695Z,0
2017-03-07T02:54:11.083Z,0
2017-03-07T02:55:21.863Z,0
2017-03-07T02:56:32.646Z,0
2017-03-07T02:57:42.615Z,0
2017-03-07T02:58:53.374Z,0
2017-03-07T03:00:03.751Z,0
2017-03-07T03:31:53.769Z,0
2017-03-07T03:33:04.141Z,0
2017-03-07T03:34:14.547Z,0
2017-03-07T03:35:24.152Z,0
2017-03-07T03:36:34.128Z,0
2017-03-07T03:37:44.541Z,0
2017-03-07T03:38:54.955Z,0
2017-03-07T03:40:05.730Z,0
2017-03-07T03:41:16.479Z,0
2017-03-07T03:42:26.838Z,0
2017-03-07T03:43:36.827Z,0
2017-03-07T03:44:47.583Z,0
2017-03-07T03:45:57.963Z,0
2017-03-07T03:47:08.349Z,0
2017-03-07T03:48:19.152Z,0
2017-03-07T03:49:29.534Z,0
2017-03-07T03:50:39.905Z,0
2017-03-07T03:51:50.283Z,0
2017-03-07T03:53:00.670Z,0
2017-03-07T03:54:10.650Z,0
2017-03-07T03:55:21.437Z,0
2017-03-07T03:56:32.225Z,0
2017-03-07T03:57:42.230Z,0
2017-03-07T03:58:52.599Z,0
2017-03-07T04:00:03.400Z,0
2017-03-07T04:01:13.412Z,0
2017-03-07T04:02:24.178Z,0
2017-03-07T04:03:34.942Z,0
2017-03-07T04:04:45.707Z,0
2017-03-07T04:05:55.689Z,0
2017-03-07T04:07:06.065Z,0
2017-03-07T04:08:16.034Z,0
2017-03-07T04:09:26.445Z,0
2017-03-07T04:10:37.235Z,0
2017-03-07T04:11:47.212Z,0
2017-03-07T04:12:57.987Z,0
2017-03-07T04:14:07.975Z,0
2017-03-07T04:15:18.792Z,0
2017-03-07T04:16:29.562Z,0
2017-03-07T04:17:39.991Z,0
2017-03-07T04:18:50.412Z,0
2017-03-07T04:20:01.204Z,0
2017-03-07T04:21:11.186Z,0
2017-03-07T04:22:21.562Z,0
2017-03-07T04:23:31.925Z,0
2017-03-07T04:24:42.705Z,0
2017-03-07T04:25:53.507Z,0
2017-03-07T04:27:04.279Z,0
2017-03-07T04:28:15.082Z,0
2017-03-07T04:29:26.081Z,0
2017-03-07T04:30:36.869Z,0
2017-03-07T04:31:47.249Z,0
2017-03-07T04:32:57.633Z,0
2017-03-07T04:34:08.407Z,0
2017-03-07T04:35:18.825Z,0
2017-03-07T04:36:29.602Z,0
2017-03-07T04:37:40.370Z,0
2017-03-07T04:38:49.581Z,0
2017-03-07T04:39:59.578Z,0
2017-03-07T04:41:10.358Z,0
2017-03-07T04:42:20.338Z,0
2017-03-07T04:43:31.114Z,0
2017-03-07T04:44:41.876Z,0
2017-03-07T04:45:52.298Z,0
2017-03-07T04:47:02.680Z,0
2017-03-07T04:48:12.661Z,0
2017-03-07T04:49:23.446Z,0
2017-03-07T04:50:33.884Z,0
2017-03-07T04:51:44.661Z,0
2017-03-07T04:52:55.031Z,4
2017-03-07T04:54:05.812Z,4
2017-03-07T04:55:16.589Z,4
2017-03-07T04:56:26.953Z,0
2017-03-07T04:57:37.359Z,0
2017-03-07T04:58:48.120Z,4
2017-03-07T04:59:58.889Z,4
2017-03-07T05:01:09.654Z,4
2017-03-07T05:02:20.031Z,4
2017-03-07T05:03:30.414Z,4
2017-03-07T05:04:40.393Z,8
2017-03-07T05:05:50.792Z,8
2017-03-07T05:07:01.557Z,8
2017-03-07T05:08:11.929Z,12
2017-03-07T05:09:22.290Z,12
2017-03-07T05:10:33.088Z,20
2017-03-07T05:11:43.856Z,20
2017-03-07T05:12:54.241Z,28
2017-03-07T05:14:05.002Z,28
2017-03-07T05:15:15.776Z,32
2017-03-07T05:16:26.553Z,40
2017-03-07T05:17:36.914Z,40
2017-03-07T05:18:47.297Z,44
2017-03-07T05:19:57.286Z,52
2017-03-07T05:21:08.064Z,60
2017-03-07T05:22:18.441Z,72
2017-03-07T05:23:28.852Z,80
2017-03-07T05:24:39.625Z,92
2017-03-07T05:25:49.624Z,104
2017-03-07T05:27:00.407Z,120
2017-03-07T05:28:11.175Z,140
2017-03-07T05:29:21.185Z,160
2017-03-07T05:30:31.563Z,176
2017-03-07T05:31:41.945Z,192
2017-03-07T05:32:51.920Z,208
2017-03-07T05:34:01.517Z,232
2017-03-07T05:35:11.910Z,256
2017-03-07T05:36:22.719Z,284
2017-03-07T05:37:33.137Z,308
2017-03-07T05:38:43.925Z,336
2017-03-07T05:39:54.692Z,364
2017-03-07T05:41:05.132Z,384
2017-03-07T05:42:15.510Z,388
2017-03-07T05:43:25.897Z,400
2017-03-07T05:44:36.258Z,412
2017-03-07T05:45:46.243Z,420
2017-03-07T05:46:56.627Z,436
2017-03-07T05:48:07.398Z,452
2017-03-07T05:49:18.184Z,452
2017-03-07T05:50:28.162Z,448
2017-03-07T05:51:38.165Z,436
2017-03-07T05:52:48.543Z,432
2017-03-07T05:53:58.922Z,452
2017-03-07T05:55:09.318Z,460
2017-03-07T05:56:20.105Z,484
2017-03-07T05:57:30.481Z,500
2017-03-07T05:58:40.878Z,508
2017-03-07T05:59:51.260Z,504
2017-03-07T06:01:02.065Z,504
2017-03-07T06:02:12.427Z,528
2017-03-07T06:03:23.196Z,544
2017-03-07T06:04:33.996Z,576
2017-03-07T06:05:44.775Z,600
2017-03-07T06:06:55.563Z,612
2017-03-07T06:08:05.938Z,632
2017-03-07T06:09:16.728Z,668
2017-03-07T06:10:27.109Z,704
2017-03-07T06:11:37.882Z,748
2017-03-07T06:12:48.283Z,792
2017-03-07T06:13:57.877Z,820
2017-03-07T06:15:08.656Z,840
2017-03-07T06:16:19.443Z,860
2017-03-07T06:17:29.412Z,892
2017-03-07T06:18:40.174Z,936
2017-03-07T06:19:50.953Z,988
2017-03-07T06:21:01.729Z,1080
2017-03-07T06:22:12.147Z,1188
2017-03-07T06:23:22.920Z,1276
2017-03-07T06:24:32.908Z,1332
2017-03-07T06:25:43.717Z,1392
2017-03-07T06:26:54.494Z,1396
2017-03-07T06:28:05.258Z,1392
2017-03-07T06:29:16.034Z,1436
2017-03-07T06:30:26.848Z,1548
2017-03-07T06:31:37.221Z,1652
2017-03-07T06:32:48.024Z,1640
2017-03-07T06:33:58.415Z,1612
2017-03-07T06:35:09.205Z,1600
2017-03-07T06:36:20.029Z,1592
2017-03-07T06:37:30.421Z,1684
2017-03-07T06:38:41.216Z,1824
2017-03-07T06:39:52.021Z,2004
2017-03-07T06:41:02.801Z,2144
2017-03-07T06:42:13.587Z,2252
2017-03-07T06:43:24.373Z,2348
2017-03-07T06:44:35.155Z,2408
2017-03-07T06:45:45.944Z,2424
2017-03-07T06:46:56.348Z,2476
2017-03-07T06:48:07.155Z,2488
2017-03-07T06:49:17.932Z,2524
2017-03-07T06:50:28.345Z,2536
2017-03-07T06:51:39.112Z,2528
2017-03-07T06:52:49.130Z,2544
2017-03-07T06:53:59.959Z,2604
2017-03-07T06:55:10.724Z,2720
2017-03-07T06:56:21.113Z,2820
2017-03-07T06:57:31.509Z,2960
2017-03-07T06:58:42.265Z,3096
2017-03-07T06:59:52.628Z,3180
2017-03-07T07:01:03.425Z,3424
2017-03-07T07:02:14.195Z,3556
2017-03-07T07:03:24.217Z,3644
2017-03-07T07:04:34.990Z,3740
2017-03-07T07:05:45.792Z,3904
2017-03-07T07:06:56.165Z,3864
2017-03-07T07:08:06.563Z,4220
2017-03-07T07:09:17.332Z,4352
2017-03-07T07:10:27.713Z,4504
2017-03-07T07:11:38.486Z,4568
2017-03-07T07:12:48.872Z,4604
2017-03-07T07:13:59.282Z,4740
2017-03-07T07:15:09.656Z,4860
2017-03-07T07:16:20.068Z,5028
2017-03-07T07:17:30.858Z,5120
2017-03-07T07:18:41.263Z,5256
2017-03-07T07:19:51.623Z,5036
2017-03-07T07:21:00.950Z,5012
2017-03-07T07:22:11.340Z,4792
2017-03-07T07:23:22.111Z,4668
2017-03-07T07:24:32.527Z,4600
2017-03-07T07:32:04.370Z,5284
2017-03-07T07:33:14.008Z,5668
2017-03-07T07:34:24.395Z,5644
2017-03-07T07:35:34.800Z,6020
2017-03-07T07:36:45.233Z,6080
2017-03-07T07:37:55.218Z,6176
2017-03-07T07:39:05.625Z,6500
2017-03-07T07:40:16.399Z,5712
2017-03-07T07:41:27.200Z,6584
2017-03-07T07:42:37.591Z,5624
2017-03-07T07:43:47.958Z,5688
2017-03-07T07:44:58.733Z,5712
2017-03-07T07:46:09.529Z,5296
2017-03-07T07:47:19.932Z,5552
2017-03-07T07:48:30.734Z,6656
2017-03-07T07:49:41.531Z,6128
2017-03-07T07:50:52.316Z,7644
2017-03-07T07:52:02.720Z,7440
2017-03-07T07:53:13.157Z,6128
2017-03-07T07:54:23.930Z,5564
2017-03-07T07:55:34.717Z,5460
2017-03-07T07:56:45.094Z,5524
2017-03-07T07:57:55.881Z,5728
2017-03-07T07:59:06.265Z,6400
2017-03-07T08:00:16.291Z,5796
2017-03-07T08:01:26.695Z,5512
2017-03-07T08:02:37.081Z,5700
2017-03-07T08:03:47.885Z,5620
2017-03-07T08:04:58.670Z,5712
2017-03-07T08:06:09.056Z,6024
2017-03-07T08:07:19.428Z,7792
2017-03-07T08:08:29.842Z,8148
2017-03-07T08:09:40.222Z,8296
2017-03-07T08:10:50.612Z,7796
2017-03-07T08:12:01.401Z,7448
2017-03-07T08:13:11.795Z,7368
2017-03-07T08:14:22.203Z,7352
2017-03-07T08:15:32.189Z,7208
2017-03-07T08:16:42.195Z,6588
2017-03-07T08:17:52.574Z,6912
2017-03-07T08:19:02.991Z,7092
2017-03-07T08:20:13.385Z,7052
2017-03-07T08:21:23.801Z,7300
2017-03-07T08:22:34.190Z,6908
2017-03-07T08:23:44.581Z,6908
2017-03-07T08:24:54.988Z,6420
2017-03-07T08:26:05.768Z,6868
2017-03-07T08:27:16.586Z,7328
2017-03-07T08:28:27.372Z,7428
2017-03-07T08:29:37.754Z,7072
2017-03-07T08:30:48.555Z,7268
2017-03-07T08:31:59.343Z,5912
2017-03-07T08:33:08.934Z,7184
2017-03-07T08:34:19.716Z,6492
2017-03-07T08:35:30.108Z,6900
2017-03-07T08:36:40.557Z,8148
2017-03-07T08:37:51.592Z,6152
2017-03-07T08:39:02.388Z,5940
2017-03-07T08:40:13.205Z,5932
2017-03-07T08:41:23.996Z,5876
2017-03-07T08:42:34.806Z,5832
2017-03-07T08:43:45.187Z,5912
2017-03-07T08:44:55.187Z,8960
2017-03-07T08:46:05.987Z,8980
2017-03-07T08:47:15.996Z,8920
2017-03-07T08:48:26.800Z,8612
2017-03-07T08:49:37.208Z,9124
2017-03-07T08:50:47.580Z,7900
2017-03-07T08:51:57.979Z,5956
2017-03-07T08:53:08.763Z,5468
2017-03-07T08:54:18.779Z,5184
2017-03-07T08:55:29.171Z,5188
2017-03-07T08:56:39.975Z,5960
2017-03-07T08:57:50.361Z,8696
2017-03-07T08:59:01.167Z,8468
2017-03-07T09:00:10.753Z,8544
2017-03-07T09:01:21.556Z,8556
2017-03-07T09:02:32.364Z,8676
2017-03-07T09:03:42.756Z,8776
2017-03-07T09:04:53.162Z,8796
2017-03-07T09:06:03.956Z,8904
2017-03-07T09:07:14.795Z,8884
2017-03-07T09:08:25.598Z,8920
2017-03-07T09:09:36.003Z,8808
2017-03-07T09:10:46.019Z,8928
2017-03-07T09:11:56.420Z,8988
2017-03-07T09:13:06.414Z,9040
2017-03-07T09:14:17.212Z,9392
2017-03-07T09:15:27.212Z,7460
2017-03-07T09:16:37.232Z,9276
2017-03-07T09:17:47.644Z,9768
2017-03-07T09:18:57.667Z,9848
2017-03-07T09:20:07.659Z,9584
2017-03-07T09:21:18.069Z,9608
2017-03-07T09:22:28.846Z,9824
2017-03-07T09:23:39.244Z,9760
2017-03-07T09:24:49.632Z,9424
2017-03-07T09:26:00.032Z,9396
2017-03-07T09:27:10.044Z,9784
2017-03-07T09:28:20.844Z,6980
2017-03-07T09:29:31.660Z,7644
2017-03-07T09:30:42.082Z,9752
2017-03-07T09:31:52.870Z,8712
2017-03-07T09:33:03.643Z,5388
2017-03-07T09:34:13.643Z,7284
2017-03-07T09:35:24.481Z,7468
2017-03-07T09:36:35.546Z,6072
2017-03-07T09:37:46.665Z,5620
2017-03-07T09:38:57.056Z,9892
2017-03-07T09:40:07.449Z,6420
2017-03-07T09:41:17.448Z,7756
2017-03-07T09:42:27.830Z,8128
2017-03-07T09:43:38.163Z,7428
2017-03-07T09:44:48.144Z,5400
2017-03-07T09:45:58.937Z,6240
2017-03-07T09:47:09.309Z,5348
2017-03-07T09:48:19.677Z,5136
2017-03-07T09:49:30.697Z,10236
2017-03-07T09:50:41.489Z,6308
2017-03-07T09:51:51.519Z,10480
2017-03-07T09:53:02.313Z,10548
2017-03-07T09:54:13.111Z,5408
2017-03-07T09:55:23.535Z,7788
2017-03-07T09:56:33.921Z,6032
2017-03-07T09:57:44.363Z,6004
2017-03-07T09:58:54.749Z,5836
2017-03-07T10:00:05.126Z,10724
2017-03-07T10:01:15.934Z,5608
2017-03-07T10:02:26.568Z,5608
2017-03-07T10:03:37.370Z,5900
2017-03-07T10:04:48.169Z,6680
2017-03-07T10:05:58.966Z,6148
2017-03-07T10:07:08.984Z,6056
2017-03-07T10:08:19.784Z,5748
2017-03-07T10:09:30.234Z,5572
2017-03-07T10:10:40.218Z,5692
2017-03-07T10:11:50.628Z,5584
2017-03-07T10:13:01.042Z,5584
2017-03-07T10:14:11.840Z,5464
2017-03-07T10:15:22.239Z,5372
2017-03-07T10:16:33.056Z,5808
2017-03-07T10:17:43.448Z,5856
2017-03-07T10:18:54.272Z,5400
2017-03-07T10:20:05.061Z,6440
2017-03-07T10:21:14.270Z,6864
2017-03-07T10:22:24.664Z,10932
2017-03-07T10:23:35.446Z,6532
2017-03-07T10:24:46.252Z,6352
2017-03-07T10:25:57.039Z,8012
2017-03-07T10:27:07.431Z,5012
2017-03-07T10:28:17.843Z,5312
2017-03-07T10:29:28.243Z,5560
2017-03-07T10:30:38.237Z,5348
2017-03-07T10:31:48.634Z,5684
2017-03-07T10:32:58.654Z,5908
2017-03-07T10:34:09.043Z,6104
2017-03-07T10:35:19.843Z,6948
2017-03-07T10:36:30.261Z,7044
2017-03-07T10:37:41.088Z,7360
2017-03-07T10:38:51.889Z,7512
2017-03-07T10:40:02.279Z,7628
2017-03-07T10:41:12.283Z,9152
2017-03-07T10:42:23.064Z,7488
2017-03-07T10:43:33.436Z,7348
2017-03-07T10:44:44.262Z,7284
2017-03-07T10:45:54.299Z,6940
2017-03-07T10:47:05.082Z,6972
2017-03-07T10:48:15.472Z,7208
2017-03-07T10:49:26.274Z,8748
2017-03-07T10:50:36.292Z,11432
2017-03-07T10:51:46.683Z,8816
2017-03-07T10:52:56.703Z,7420
2017-03-07T10:54:07.147Z,8180
2017-03-07T10:55:17.948Z,7352
2017-03-07T10:56:28.341Z,7880
2017-03-07T10:57:39.127Z,13492
2017-03-07T10:58:49.907Z,9364
2017-03-07T11:00:00.304Z,10140
2017-03-07T11:01:11.130Z,8848
2017-03-07T11:02:21.534Z,8176
2017-03-07T11:03:32.320Z,8436
2017-03-07T11:04:43.129Z,10088
2017-03-07T11:05:53.164Z,8928
2017-03-07T11:07:02.786Z,10072
2017-03-07T11:08:13.177Z,11716
2017-03-07T11:09:23.969Z,6540
2017-03-07T11:10:34.416Z,11992
2017-03-07T11:11:44.827Z,6820
2017-03-07T11:12:55.230Z,6424
2017-03-07T11:14:05.619Z,6824
2017-03-07T11:15:16.412Z,7304
2017-03-07T11:16:27.191Z,7968
2017-03-07T11:17:37.971Z,8596
2017-03-07T11:18:48.373Z,8796
2017-03-07T11:19:58.788Z,10932
2017-03-07T11:21:09.661Z,8352
2017-03-07T11:22:19.668Z,7620
2017-03-07T11:23:30.085Z,6988
2017-03-07T11:24:40.085Z,8812
2017-03-07T11:25:50.522Z,11252
2017-03-07T11:27:01.339Z,7108
2017-03-07T11:28:12.122Z,6352
2017-03-07T11:29:22.899Z,6548
2017-03-07T11:30:33.680Z,6696
2017-03-07T11:31:44.447Z,7232
2017-03-07T11:32:54.448Z,7016
2017-03-07T11:34:05.241Z,7244
2017-03-07T11:35:15.638Z,6900
2017-03-07T11:36:25.641Z,6796
2017-03-07T11:37:36.014Z,7496
2017-03-07T11:38:46.810Z,7380
2017-03-07T11:39:57.226Z,7156
2017-03-07T11:41:08.048Z,6644
2017-03-07T11:42:18.863Z,6788
2017-03-07T11:43:29.685Z,7132
2017-03-07T11:44:40.489Z,10556
2017-03-07T11:45:51.291Z,8156
2017-03-07T11:47:01.705Z,9160
2017-03-07T11:48:12.100Z,9288
2017-03-07T11:49:22.911Z,12996
2017-03-07T11:50:33.708Z,6680
2017-03-07T11:51:44.498Z,5632
2017-03-07T11:52:55.309Z,5760
2017-03-07T11:54:06.110Z,5420
2017-03-07T11:55:16.520Z,6312
2017-03-07T11:56:27.308Z,11220
2017-03-07T11:57:38.106Z,11336
2017-03-07T11:58:48.929Z,11224
2017-03-07T11:59:59.317Z,11040
2017-03-07T12:01:09.350Z,10712
2017-03-07T12:02:20.121Z,10284
2017-03-07T12:03:30.912Z,10604
2017-03-07T12:04:40.928Z,9176
2017-03-07T12:05:50.914Z,9436
2017-03-07T12:07:00.958Z,4772
2017-03-07T12:08:11.748Z,4160
2017-03-07T12:09:21.773Z,4288
2017-03-07T12:10:32.143Z,4456
2017-03-07T12:11:42.533Z,4772
2017-03-07T12:12:53.334Z,5224
2017-03-07T12:14:04.151Z,5596
2017-03-07T12:15:14.940Z,5580
2017-03-07T12:16:25.736Z,5276
2017-03-07T12:17:36.143Z,4988
2017-03-07T12:18:46.563Z,4744
2017-03-07T12:19:56.969Z,4620
2017-03-07T12:21:07.749Z,4564
2017-03-07T12:22:18.138Z,4520
2017-03-07T12:23:28.941Z,4484
2017-03-07T12:24:38.934Z,4520
2017-03-07T12:25:49.722Z,4652
2017-03-07T12:27:00.508Z,4912
2017-03-07T12:28:10.518Z,5168
2017-03-07T12:29:21.322Z,5276
2017-03-07T12:30:32.128Z,5244
2017-03-07T12:31:42.135Z,5260
2017-03-07T12:32:52.550Z,5416
2017-03-07T12:34:03.336Z,5544
2017-03-07T12:35:13.729Z,5712
2017-03-07T12:36:23.706Z,5880
2017-03-07T12:37:34.083Z,5908
2017-03-07T12:38:44.474Z,6180
2017-03-07T12:39:54.861Z,6504
2017-03-07T12:41:05.642Z,12088
2017-03-07T12:42:15.644Z,6612
2017-03-07T12:43:25.670Z,6064
2017-03-07T12:44:36.476Z,5984
2017-03-07T12:45:46.469Z,5908
2017-03-07T12:46:55.693Z,6004
2017-03-07T12:48:06.476Z,6116
2017-03-07T12:49:17.265Z,6476
2017-03-07T12:50:27.678Z,6000
2017-03-07T12:51:38.459Z,7076
2017-03-07T12:52:49.257Z,6252
2017-03-07T12:53:59.676Z,6012
2017-03-07T12:55:10.498Z,5520
2017-03-07T12:56:20.903Z,5376
2017-03-07T12:57:30.897Z,5156
2017-03-07T12:58:41.292Z,5216
2017-03-07T12:59:52.094Z,6972
2017-03-07T13:01:02.074Z,5236
2017-03-07T13:02:12.878Z,5704
2017-03-07T13:03:22.891Z,4888
2017-03-07T13:04:33.297Z,5152
2017-03-07T13:05:44.089Z,5168
2017-03-07T13:06:54.882Z,5524
2017-03-07T13:08:05.683Z,5468
2017-03-07T13:09:16.063Z,5640
2017-03-07T13:10:26.456Z,5784
2017-03-07T13:12:55.560Z,7556
2017-03-07T13:14:06.076Z,11000
2017-03-07T13:15:16.929Z,6264
2017-03-07T13:16:27.776Z,9192
2017-03-07T13:17:39.074Z,9720
2017-03-07T13:18:49.494Z,9740
2017-03-07T13:19:59.106Z,8728
2017-03-07T13:21:09.536Z,8488
2017-03-07T13:22:20.378Z,5292
2017-03-07T13:23:30.761Z,5396
2017-03-07T13:24:41.546Z,8352
2017-03-07T13:25:51.542Z,6952
2017-03-07T13:27:02.345Z,4744
2017-03-07T13:28:12.338Z,5968
2017-03-07T13:29:23.128Z,3840
2017-03-07T13:30:33.518Z,3392
2017-03-07T13:31:44.326Z,3132
2017-03-07T13:32:54.717Z,2816
2017-03-07T13:34:05.124Z,2628
2017-03-07T13:35:15.937Z,2524
2017-03-07T13:36:26.304Z,2456
2017-03-07T13:37:36.322Z,2424
2017-03-07T13:38:47.163Z,2392
2017-03-07T13:39:57.539Z,2384
2017-03-07T13:41:08.051Z,2424
2017-03-07T13:42:17.646Z,2468
2017-03-07T13:43:28.039Z,2568
2017-03-07T13:44:38.055Z,2724
2017-03-07T13:45:48.439Z,2952
2017-03-07T13:46:58.824Z,3244
2017-03-07T13:48:09.221Z,3556
2017-03-07T13:49:19.634Z,3828
2017-03-07T13:50:30.429Z,4060
2017-03-07T13:51:40.824Z,4248
2017-03-07T13:52:51.633Z,4432
2017-03-07T13:54:02.027Z,4584
2017-03-07T13:55:12.050Z,4692
2017-03-07T13:56:22.449Z,4776
2017-03-07T13:57:33.213Z,4848
2017-03-07T13:58:44.043Z,4912
2017-03-07T13:59:54.821Z,4976
2017-03-07T14:01:04.425Z,5044
2017-03-07T14:02:14.435Z,5124
2017-03-07T14:03:24.808Z,5324
2017-03-07T14:04:34.831Z,5208
2017-03-07T14:05:45.607Z,4876
2017-03-07T14:06:56.014Z,4800
2017-03-07T14:08:06.801Z,4620
2017-03-07T14:09:17.173Z,4408
2017-03-07T14:10:26.774Z,4140
2017-03-07T14:11:37.170Z,3976
2017-03-07T14:12:47.957Z,4904
2017-03-07T14:13:58.784Z,4028
2017-03-07T14:15:09.175Z,4072
2017-03-07T14:16:19.961Z,3824
2017-03-07T14:17:30.373Z,3840
2017-03-07T14:18:41.150Z,4076
2017-03-07T14:19:51.955Z,6812
2017-03-07T14:21:02.739Z,6556
2017-03-07T14:22:12.733Z,8060
2017-03-07T14:23:23.132Z,3780
2017-03-07T14:24:33.547Z,3568
2017-03-07T14:25:44.331Z,3420
2017-03-07T14:26:55.121Z,3396
2017-03-07T14:28:05.949Z,3512
2017-03-07T14:29:16.716Z,5292
2017-03-07T14:30:27.525Z,3360
2017-03-07T14:31:37.549Z,3212
2017-03-07T14:32:47.972Z,3108
2017-03-07T14:33:57.962Z,3036
2017-03-07T14:35:08.405Z,2976
2017-03-07T14:36:18.806Z,2920
2017-03-07T14:37:28.808Z,2908
2017-03-07T14:38:39.632Z,3008
2017-03-07T14:39:50.432Z,3092
2017-03-07T14:41:01.241Z,3056
2017-03-07T14:42:12.025Z,3016
2017-03-07T14:43:22.416Z,2940
2017-03-07T14:44:33.229Z,2752
2017-03-07T14:45:43.663Z,2568
2017-03-07T14:46:53.673Z,2460
2017-03-07T14:48:04.523Z,2356
2017-03-07T14:49:14.551Z,2272
2017-03-07T14:50:24.577Z,2136
2017-03-07T14:51:34.950Z,1932
2017-03-07T14:52:45.751Z,1668
2017-03-07T14:53:56.152Z,1412
2017-03-07T14:55:06.545Z,1212
2017-03-07T14:56:17.339Z,1068
2017-03-07T14:57:27.734Z,976
2017-03-07T14:58:38.123Z,952
2017-03-07T14:59:48.527Z,1000
2017-03-07T15:00:58.527Z,1088
2017-03-07T15:02:09.310Z,1160
2017-03-07T15:03:20.076Z,1152
2017-03-07T15:04:30.838Z,1068
2017-03-07T15:05:41.634Z,964
2017-03-07T15:06:52.011Z,912
2017-03-07T15:08:02.823Z,884
2017-03-07T15:09:13.611Z,852
2017-03-07T15:10:24.461Z,808
2017-03-07T15:11:35.253Z,792
2017-03-07T15:12:45.632Z,816
2017-03-07T15:13:56.413Z,804
2017-03-07T15:15:06.814Z,812
2017-03-07T15:16:16.423Z,808
2017-03-07T15:17:27.219Z,804
2017-03-07T15:18:37.999Z,808
2017-03-07T15:19:48.397Z,840
2017-03-07T15:20:58.821Z,892
2017-03-07T15:22:09.197Z,940
2017-03-07T15:23:19.231Z,980
2017-03-07T15:24:30.025Z,1076
2017-03-07T15:25:40.825Z,1180
2017-03-07T15:26:51.199Z,1272
2017-03-07T15:28:01.984Z,1340
2017-03-07T15:29:12.767Z,1432
2017-03-07T15:30:22.358Z,1548
2017-03-07T15:31:33.137Z,1680
2017-03-07T15:32:43.935Z,1808
2017-03-07T15:33:54.738Z,1900
2017-03-07T15:35:04.767Z,1984
2017-03-07T15:36:15.171Z,2008
2017-03-07T15:37:26.212Z,2000
2017-03-07T15:38:37.064Z,1988
2017-03-07T15:39:47.456Z,1964
2017-03-07T15:40:57.480Z,1944
2017-03-07T15:42:08.284Z,2828
2017-03-07T15:43:19.105Z,2052
2017-03-07T15:44:29.894Z,2044
2017-03-07T15:45:40.666Z,2060
2017-03-07T15:46:51.459Z,2624
2017-03-07T15:48:01.834Z,1988
2017-03-07T15:49:12.220Z,1800
2017-03-07T15:50:21.846Z,2104
2017-03-07T15:51:32.227Z,2320
2017-03-07T15:52:42.628Z,2340
2017-03-07T15:53:52.625Z,2268
2017-03-07T15:55:03.440Z,2284
2017-03-07T15:56:14.238Z,2172
2017-03-07T15:57:24.620Z,2144
2017-03-07T15:58:35.398Z,2172
2017-03-07T15:59:45.793Z,2132
2017-03-07T16:00:56.177Z,2072
2017-03-07T16:02:06.166Z,1696
2017-03-07T16:03:16.938Z,1692
2017-03-07T16:04:27.730Z,1856
2017-03-07T16:05:38.123Z,1604
2017-03-07T16:06:48.547Z,1528
2017-03-07T16:07:59.378Z,1464
2017-03-07T16:09:10.153Z,1408
2017-03-07T16:10:20.573Z,1360
2017-03-07T16:11:30.973Z,1312
2017-03-07T16:12:40.977Z,1244
2017-03-07T16:13:51.381Z,1156
2017-03-07T16:15:02.189Z,1076
2017-03-07T16:16:12.983Z,984
2017-03-07T16:17:23.762Z,920
2017-03-07T16:18:33.371Z,852
2017-03-07T16:19:44.145Z,784
2017-03-07T16:20:54.978Z,748
2017-03-07T16:22:07.086Z,728
2017-03-07T16:23:17.944Z,704
2017-03-07T16:24:28.739Z,672
2017-03-07T16:25:39.551Z,640
2017-03-07T16:26:49.951Z,616
2017-03-07T16:28:00.372Z,580
2017-03-07T16:29:10.372Z,540
2017-03-07T16:30:21.161Z,500
2017-03-07T16:31:31.215Z,468
2017-03-07T16:32:42.022Z,436
2017-03-07T16:33:52.835Z,408
2017-03-07T16:35:03.216Z,376
2017-03-07T16:36:13.648Z,336
2017-03-07T16:37:24.108Z,304
2017-03-07T16:38:34.927Z,268
2017-03-07T16:39:45.347Z,236
2017-03-07T16:40:56.156Z,204
2017-03-07T16:42:06.959Z,180
2017-03-07T16:43:17.356Z,160
2017-03-07T16:44:28.193Z,140
2017-03-07T16:45:38.604Z,128
2017-03-07T16:46:49.014Z,112
2017-03-07T16:47:59.814Z,96